MSC Giovanna — 3FRB9 — position and weather

sailwx.info

Track history (hours):
 
Tides and Currents Weather Stations Pressure Air Temp Water Temp Dewpoint Dewpoint Depression Visibility Wind Speed Wind Dir Waves Ship Positions

MSC Giovanna

Last reported at 2018-Jun-23 05:31 UTC. Time now 2018-Jun-23 10:16 UTC.
Position N 39°42' E 025°51'.

Length 178 m; draft 7.8 m.

Type: Ship. MMSI: 357702000.

Date/timePositionNaut miles runAvg speedWind from/ knotsBaromVisibWave heightAir tempDewpointWater temp
2018-Jun-23 05:31N 39°42' E 025°51'015.3
2018-Jun-23 05:30N 39°42' E 025°51'815.2
2018-Jun-23 04:59N 39°34' E 025°49'815.6
2018-Jun-23 04:30N 39°27' E 025°48'11315.7
2018-Jun-22 21:16N 37°33' E 025°52'415.8
2018-Jun-22 21:01N 37°29' E 025°53'51314.2
2018-Jun-21 08:44N 32°55' E 034°44'314.7
2018-Jun-21 08:30N 32°54' E 034°48'714.7
2018-Jun-21 08:00N 32°53' E 034°57'4 0.2
2018-Jun-20 08:48N 32°51' E 035°01'2 7.3
2018-Jun-20 08:30N 32°52' E 034°59'2 2.8
2018-Jun-20 07:41N 32°54' E 034°59'0 0.0
2018-Jun-20 07:29N 32°54' E 034°59'0 0.0
2018-Jun-20 06:38N 32°54' E 034°59'0 0.1
2018-Jun-20 06:17N 32°54' E 034°59'0 0.0
2018-Jun-20 05:53N 32°54' E 034°59'0 0.0
2018-Jun-20 05:29N 32°54' E 034°59'0 0.0
2018-Jun-20 03:30N 32°54' E 034°59'0 0.0
2018-Jun-20 02:09N 32°54' E 034°59'0 0.2
2018-Jun-20 01:42N 32°54' E 034°59'0 0.0
2018-Jun-20 01:15N 32°54' E 034°59'0 0.0
2018-Jun-20 00:57N 32°54' E 034°59'0 0.0
2018-Jun-20 00:15N 32°54' E 034°59'0 0.0
2018-Jun-19 23:42N 32°54' E 034°59'0 0.0
2018-Jun-19 22:33N 32°54' E 034°59'0 0.3
2018-Jun-19 22:21N 32°54' E 034°59'0 0.0
2018-Jun-19 20:50N 32°54' E 034°59'0 0.0
2018-Jun-19 20:29N 32°54' E 034°59'0 0.0
2018-Jun-19 18:41N 32°54' E 034°59'0 0.1
2018-Jun-19 18:24N 32°54' E 034°59'0 0.1
2018-Jun-19 17:06N 32°54' E 034°59'0 0.1
2018-Jun-19 16:59N 32°54' E 034°59'0 0.5
2018-Jun-19 16:29N 32°54' E 034°59'5 8.0
2018-Jun-19 15:55N 32°52' E 034°54'3 8.3
2018-Jun-19 15:30N 32°51' E 034°51'5 9.4
2018-Jun-19 15:00N 32°46' E 034°49'5 9.4
2018-Jun-19 14:30N 32°42' E 034°47'5 9.4
2018-Jun-19 13:59N 32°37' E 034°45'5 9.4
2018-Jun-19 13:30N 32°33' E 034°44'5 9.5
2018-Jun-19 13:00N 32°28' E 034°42'5 9.6
2018-Jun-19 12:30N 32°24' E 034°40'5 9.6
2018-Jun-19 12:00N 32°19' E 034°38'5 9.7
2018-Jun-19 11:30N 32°15' E 034°37'5 9.7
2018-Jun-19 11:00N 32°10' E 034°35'5 9.7
2018-Jun-19 10:30N 32°05' E 034°33'  
2018-Jun-16 21:33N 31°50' E 034°39'0 0.1
2018-Jun-16 21:30N 31°50' E 034°39'0 0.0
2018-Jun-16 20:58N 31°50' E 034°39'0 0.0
2018-Jun-16 20:23N 31°50' E 034°39'0 0.0
2018-Jun-16 19:56N 31°50' E 034°39'0 0.0
2018-Jun-16 17:11N 31°50' E 034°39'0 0.0
2018-Jun-16 16:28N 31°50' E 034°39'0 0.0
2018-Jun-16 15:58N 31°50' E 034°39'0 0.0
2018-Jun-16 15:19N 31°50' E 034°39'0 0.0
2018-Jun-16 14:59N 31°50' E 034°39'0 0.0
2018-Jun-16 14:25N 31°50' E 034°39'0 0.0
2018-Jun-16 13:58N 31°50' E 034°39'0 0.0
2018-Jun-16 13:29N 31°50' E 034°39'0 0.0
2018-Jun-16 13:00N 31°50' E 034°39'0 0.0
2018-Jun-16 12:31N 31°50' E 034°39'0 0.0
2018-Jun-16 11:59N 31°50' E 034°39'0 0.0
2018-Jun-16 11:28N 31°50' E 034°39'0 0.0
2018-Jun-16 10:57N 31°50' E 034°39'0 0.0
2018-Jun-16 10:30N 31°50' E 034°39'0 0.0
2018-Jun-16 09:53N 31°50' E 034°39'0 0.0
2018-Jun-16 09:31N 31°50' E 034°39'0 0.0
2018-Jun-16 09:01N 31°50' E 034°39'0 0.0
2018-Jun-16 08:28N 31°50' E 034°39'0 0.0
2018-Jun-16 07:49N 31°50' E 034°39'0 0.0
2018-Jun-16 07:19N 31°50' E 034°39'2 1.0
2018-Jun-16 05:44N 31°51' E 034°38'3 1.1
2018-Jun-16 02:55N 31°50' E 034°35'0 0.0
2018-Jun-16 01:26N 31°50' E 034°35'0 0.0
2018-Jun-16 00:53N 31°50' E 034°35'0 0.1
2018-Jun-16 00:28N 31°50' E 034°35'0 0.0
2018-Jun-15 23:52N 31°50' E 034°35'0 0.1
2018-Jun-15 23:30N 31°50' E 034°35'0 0.0
2018-Jun-15 22:54N 31°50' E 034°35'0 0.1
2018-Jun-15 22:30N 31°50' E 034°35'0 0.2
2018-Jun-15 21:58N 31°50' E 034°35'0 0.0
2018-Jun-15 21:31N 31°50' E 034°35'0 0.0
2018-Jun-15 20:56N 31°50' E 034°35'0 0.0
2018-Jun-15 20:27N 31°50' E 034°35'0 0.0
2018-Jun-15 19:59N 31°50' E 034°35'0 0.0
2018-Jun-15 19:28N 31°50' E 034°35'0 0.0
2018-Jun-15 18:54N 31°50' E 034°35'0 0.0
2018-Jun-15 18:30N 31°50' E 034°35'0 0.0
2018-Jun-15 17:50N 31°50' E 034°35'0 0.1
2018-Jun-15 17:26N 31°50' E 034°35'0 0.0
2018-Jun-15 16:52N 31°50' E 034°35'0 0.0
2018-Jun-15 16:30N 31°50' E 034°35'0 0.0
2018-Jun-15 15:58N 31°50' E 034°35'0 0.0
2018-Jun-15 15:29N 31°50' E 034°35'0 0.0
2018-Jun-15 14:59N 31°50' E 034°35'0 0.0
2018-Jun-15 14:30N 31°50' E 034°35'0 0.0
2018-Jun-15 14:01N 31°50' E 034°35'0 0.0
2018-Jun-15 13:26N 31°50' E 034°35'0 0.0
2018-Jun-15 12:55N 31°50' E 034°35'0 0.0
2018-Jun-15 12:30N 31°50' E 034°35'0 0.0
2018-Jun-15 11:59N 31°50' E 034°35'0 0.1
2018-Jun-15 11:30N 31°50' E 034°35'1 2.3
2018-Jun-15 10:59N 31°51' E 034°34'0 0.6
2018-Jun-15 10:30N 31°51' E 034°34'1 2.4
2018-Jun-15 10:00N 31°50' E 034°35'0 0.0
2018-Jun-15 09:29N 31°50' E 034°35'0 0.0
2018-Jun-15 08:53N 31°50' E 034°35'0 0.0
2018-Jun-15 08:30N 31°50' E 034°35'0 0.0
2018-Jun-15 07:59N 31°50' E 034°35'0 0.0
2018-Jun-15 06:53N 31°50' E 034°35'0 0.0
2018-Jun-15 06:24N 31°50' E 034°35'0 0.0
2018-Jun-14 16:15N 31°50' E 034°35'0 0.0
2018-Jun-14 15:54N 31°50' E 034°35'0 0.0
2018-Jun-14 12:31N 31°50' E 034°35'0 0.0
2018-Jun-14 12:11N 31°50' E 034°35'0 0.0
2018-Jun-14 12:00N 31°50' E 034°35'0 0.0
2018-Jun-14 11:03N 31°50' E 034°35'0 0.1
2018-Jun-14 10:57N 31°50' E 034°35'  
Track history (hours):
 
Tides and Currents Weather Stations Pressure Air Temp Water Temp Dewpoint Dewpoint Depression Visibility Wind Speed Wind Dir Waves Ship Positions

MSC Giovanna

Last reported at 2018-Jun-23 05:31 UTC. Time now 2018-Jun-23 10:16 UTC.
Position N 39°42' E 025°51'.

Length 178 m; draft 7.8 m.

Type: Ship. MMSI: 357702000.

Date/timePositionNaut miles runAvg speedWind from/ knotsBaromVisibWave heightAir tempDewpointWater temp
2018-Jun-23 05:31N 39°42' E 025°51'015.3
2018-Jun-23 05:30N 39°42' E 025°51'815.2
2018-Jun-23 04:59N 39°34' E 025°49'815.6
2018-Jun-23 04:30N 39°27' E 025°48'11315.7
2018-Jun-22 21:16N 37°33' E 025°52'415.8
2018-Jun-22 21:01N 37°29' E 025°53'51314.2
2018-Jun-21 08:44N 32°55' E 034°44'314.7
2018-Jun-21 08:30N 32°54' E 034°48'714.7
2018-Jun-21 08:00N 32°53' E 034°57'4 0.2
2018-Jun-20 08:48N 32°51' E 035°01'2 7.3
2018-Jun-20 08:30N 32°52' E 034°59'2 2.8
2018-Jun-20 07:41N 32°54' E 034°59'0 0.0
2018-Jun-20 07:29N 32°54' E 034°59'0 0.0
2018-Jun-20 06:38N 32°54' E 034°59'0 0.1
2018-Jun-20 06:17N 32°54' E 034°59'0 0.0
2018-Jun-20 05:53N 32°54' E 034°59'0 0.0
2018-Jun-20 05:29N 32°54' E 034°59'0 0.0
2018-Jun-20 03:30N 32°54' E 034°59'0 0.0
2018-Jun-20 02:09N 32°54' E 034°59'0 0.2
2018-Jun-20 01:42N 32°54' E 034°59'0 0.0
2018-Jun-20 01:15N 32°54' E 034°59'0 0.0
2018-Jun-20 00:57N 32°54' E 034°59'0 0.0
2018-Jun-20 00:15N 32°54' E 034°59'0 0.0
2018-Jun-19 23:42N 32°54' E 034°59'0 0.0
2018-Jun-19 22:33N 32°54' E 034°59'0 0.3
2018-Jun-19 22:21N 32°54' E 034°59'0 0.0
2018-Jun-19 20:50N 32°54' E 034°59'0 0.0
2018-Jun-19 20:29N 32°54' E 034°59'0 0.0
2018-Jun-19 18:41N 32°54' E 034°59'0 0.1
2018-Jun-19 18:24N 32°54' E 034°59'0 0.1
2018-Jun-19 17:06N 32°54' E 034°59'0 0.1
2018-Jun-19 16:59N 32°54' E 034°59'0 0.5
2018-Jun-19 16:29N 32°54' E 034°59'5 8.0
2018-Jun-19 15:55N 32°52' E 034°54'3 8.3
2018-Jun-19 15:30N 32°51' E 034°51'5 9.4
2018-Jun-19 15:00N 32°46' E 034°49'5 9.4
2018-Jun-19 14:30N 32°42' E 034°47'5 9.4
2018-Jun-19 13:59N 32°37' E 034°45'5 9.4
2018-Jun-19 13:30N 32°33' E 034°44'5 9.5
2018-Jun-19 13:00N 32°28' E 034°42'5 9.6
2018-Jun-19 12:30N 32°24' E 034°40'5 9.6
2018-Jun-19 12:00N 32°19' E 034°38'5 9.7
2018-Jun-19 11:30N 32°15' E 034°37'5 9.7
2018-Jun-19 11:00N 32°10' E 034°35'5 9.7
2018-Jun-19 10:30N 32°05' E 034°33'  
2018-Jun-16 21:33N 31°50' E 034°39'0 0.1
2018-Jun-16 21:30N 31°50' E 034°39'0 0.0
2018-Jun-16 20:58N 31°50' E 034°39'0 0.0
2018-Jun-16 20:23N 31°50' E 034°39'0 0.0
2018-Jun-16 19:56N 31°50' E 034°39'0 0.0
2018-Jun-16 17:11N 31°50' E 034°39'0 0.0
2018-Jun-16 16:28N 31°50' E 034°39'0 0.0
2018-Jun-16 15:58N 31°50' E 034°39'0 0.0
2018-Jun-16 15:19N 31°50' E 034°39'0 0.0
2018-Jun-16 14:59N 31°50' E 034°39'0 0.0
2018-Jun-16 14:25N 31°50' E 034°39'0 0.0
2018-Jun-16 13:58N 31°50' E 034°39'0 0.0
2018-Jun-16 13:29N 31°50' E 034°39'0 0.0
2018-Jun-16 13:00N 31°50' E 034°39'0 0.0
2018-Jun-16 12:31N 31°50' E 034°39'0 0.0
2018-Jun-16 11:59N 31°50' E 034°39'0 0.0
2018-Jun-16 11:28N 31°50' E 034°39'0 0.0
2018-Jun-16 10:57N 31°50' E 034°39'0 0.0
2018-Jun-16 10:30N 31°50' E 034°39'0 0.0
2018-Jun-16 09:53N 31°50' E 034°39'0 0.0
2018-Jun-16 09:31N 31°50' E 034°39'0 0.0
2018-Jun-16 09:01N 31°50' E 034°39'0 0.0
2018-Jun-16 08:28N 31°50' E 034°39'0 0.0
2018-Jun-16 07:49N 31°50' E 034°39'0 0.0
2018-Jun-16 07:19N 31°50' E 034°39'2 1.0
2018-Jun-16 05:44N 31°51' E 034°38'3 1.1
2018-Jun-16 02:55N 31°50' E 034°35'0 0.0
2018-Jun-16 01:26N 31°50' E 034°35'0 0.0
2018-Jun-16 00:53N 31°50' E 034°35'0 0.1
2018-Jun-16 00:28N 31°50' E 034°35'0 0.0
2018-Jun-15 23:52N 31°50' E 034°35'0 0.1
2018-Jun-15 23:30N 31°50' E 034°35'0 0.0
2018-Jun-15 22:54N 31°50' E 034°35'0 0.1
2018-Jun-15 22:30N 31°50' E 034°35'0 0.2
2018-Jun-15 21:58N 31°50' E 034°35'0 0.0
2018-Jun-15 21:31N 31°50' E 034°35'0 0.0
2018-Jun-15 20:56N 31°50' E 034°35'0 0.0
2018-Jun-15 20:27N 31°50' E 034°35'0 0.0
2018-Jun-15 19:59N 31°50' E 034°35'0 0.0
2018-Jun-15 19:28N 31°50' E 034°35'0 0.0
2018-Jun-15 18:54N 31°50' E 034°35'0 0.0
2018-Jun-15 18:30N 31°50' E 034°35'0 0.0
2018-Jun-15 17:50N 31°50' E 034°35'0 0.1
2018-Jun-15 17:26N 31°50' E 034°35'0 0.0
2018-Jun-15 16:52N 31°50' E 034°35'0 0.0
2018-Jun-15 16:30N 31°50' E 034°35'0 0.0
2018-Jun-15 15:58N 31°50' E 034°35'0 0.0
2018-Jun-15 15:29N 31°50' E 034°35'0 0.0
2018-Jun-15 14:59N 31°50' E 034°35'0 0.0
2018-Jun-15 14:30N 31°50' E 034°35'0 0.0
2018-Jun-15 14:01N 31°50' E 034°35'0 0.0
2018-Jun-15 13:26N 31°50' E 034°35'0 0.0
2018-Jun-15 12:55N 31°50' E 034°35'0 0.0
2018-Jun-15 12:30N 31°50' E 034°35'0 0.0
2018-Jun-15 11:59N 31°50' E 034°35'0 0.1
2018-Jun-15 11:30N 31°50' E 034°35'1 2.3
2018-Jun-15 10:59N 31°51' E 034°34'0 0.6
2018-Jun-15 10:30N 31°51' E 034°34'1 2.4
2018-Jun-15 10:00N 31°50' E 034°35'0 0.0
2018-Jun-15 09:29N 31°50' E 034°35'0 0.0
2018-Jun-15 08:53N 31°50' E 034°35'0 0.0
2018-Jun-15 08:30N 31°50' E 034°35'0 0.0
2018-Jun-15 07:59N 31°50' E 034°35'0 0.0
2018-Jun-15 06:53N 31°50' E 034°35'0 0.0
2018-Jun-15 06:24N 31°50' E 034°35'0 0.0
2018-Jun-14 16:15N 31°50' E 034°35'0 0.0
2018-Jun-14 15:54N 31°50' E 034°35'0 0.0
2018-Jun-14 12:31N 31°50' E 034°35'0 0.0
2018-Jun-14 12:11N 31°50' E 034°35'0 0.0
2018-Jun-14 12:00N 31°50' E 034°35'0 0.0
2018-Jun-14 11:03N 31°50' E 034°35'0 0.1
2018-Jun-14 10:57N 31°50' E 034°35'  

Dump ship's entire track history